This is the latest recevied weather packets stored in our database for station/object 9M4RBN-3. If no packets are shown the sender has not sent any weather packets the latest 10 day(s).
| Time | Temp. | Humidity | Pressure | Rain* | Wind** | Luminosity | Snow |
|---|---|---|---|---|---|---|---|
| 1787636940 | 26.11° C | 50% | 1017.3 hPa | - | - | - | - |
| 1787636039 | 26.11° C | 51% | 1017.4 hPa | - | - | - | - |
| 1787635139 | 26.11° C | 50% | 1017.7 hPa | - | - | - | - |
| 1787634239 | 26.11° C | 51% | 1017.9 hPa | - | - | - | - |
| 1787633339 | 26.67° C | 53% | 1018 hPa | - | - | - | - |
| 1787632439 | 27.22° C | 55% | 1018.2 hPa | - | - | - | - |
| 1787631539 | 27.78° C | 65% | 1018.1 hPa | - | - | - | - |
| 1787630639 | 27.78° C | 81% | 1018.2 hPa | - | - | - | - |
| 1787629739 | 27.78° C | 81% | 1018.4 hPa | - | - | - | - |
| 1787628841 | 27.78° C | 81% | 1018.5 hPa | - | - | - | - |
| 1787627940 | 27.22° C | 81% | 1018.7 hPa | - | - | - | - |
| 1787627040 | 27.22° C | 80% | 1019 hPa | - | - | - | - |
| 1787626140 | 27.22° C | 81% | 1019.1 hPa | - | - | - | - |
| 1787625240 | 27.22° C | 80% | 1019.1 hPa | - | - | - | - |
| 1787624340 | 26.67° C | 80% | 1019.1 hPa | - | - | - | - |
| 1787623440 | 26.67° C | 79% | 1019.1 hPa | - | - | - | - |
| 1787622540 | 26.67° C | 78% | 1019.1 hPa | - | - | - | - |
| 1787621640 | 26.11° C | 76% | 1018.9 hPa | - | - | - | - |
| 1787620740 | 26.11° C | 75% | 1018.8 hPa | - | - | - | - |
| 1787619840 | 26.11° C | 74% | 1018.4 hPa | - | - | - | - |
| 1787618940 | 25.56° C | 71% | 1018.2 hPa | - | - | - | - |
| 1787618040 | 25° C | 67% | 1018 hPa | - | - | - | - |
| 1787617920 | 24.44° C | 61% | 1017.9 hPa | - | - | - | - |
| 1787617140 | 24.44° C | 61% | 1017.9 hPa | - | - | - | - |
| 1787616362 | 23.89° C | 51% | 1017.5 hPa | - | - | - | - |
* Rain since midnight (hover to see other rain measurements)
** Current wind speed in m/s (hover to see current wind gust speed)